sensor_id;sensor_type;location;lat;lon;timestamp;temperature;humidity
4306;DHT22;2166;49.926;8.608;2022-09-09T00:00:20;17.50;75.70
4306;DHT22;2166;49.926;8.608;2022-09-09T00:02:50;17.40;75.80
4306;DHT22;2166;49.926;8.608;2022-09-09T00:05:23;17.40;75.80
4306;DHT22;2166;49.926;8.608;2022-09-09T00:07:58;17.30;76.00
4306;DHT22;2166;49.926;8.608;2022-09-09T00:10:28;17.20;76.10
4306;DHT22;2166;49.926;8.608;2022-09-09T00:12:58;17.10;76.40
4306;DHT22;2166;49.926;8.608;2022-09-09T00:15:28;17.10;76.60
4306;DHT22;2166;49.926;8.608;2022-09-09T00:17:58;16.90;76.90
4306;DHT22;2166;49.926;8.608;2022-09-09T00:20:28;16.90;77.00
4306;DHT22;2166;49.926;8.608;2022-09-09T00:22:59;16.80;77.20
4306;DHT22;2166;49.926;8.608;2022-09-09T00:25:29;16.70;77.40
4306;DHT22;2166;49.926;8.608;2022-09-09T00:28:00;16.70;77.60
4306;DHT22;2166;49.926;8.608;2022-09-09T00:30:30;16.60;77.70
4306;DHT22;2166;49.926;8.608;2022-09-09T00:33:00;16.50;78.00
4306;DHT22;2166;49.926;8.608;2022-09-09T00:35:29;16.50;78.10
4306;DHT22;2166;49.926;8.608;2022-09-09T00:38:02;16.50;78.10
4306;DHT22;2166;49.926;8.608;2022-09-09T00:40:32;16.50;78.20
4306;DHT22;2166;49.926;8.608;2022-09-09T00:43:06;16.50;78.20
4306;DHT22;2166;49.926;8.608;2022-09-09T00:45:45;16.50;78.20
4306;DHT22;2166;49.926;8.608;2022-09-09T00:48:18;16.50;78.20
4306;DHT22;2166;49.926;8.608;2022-09-09T00:50:49;16.50;78.20
4306;DHT22;2166;49.926;8.608;2022-09-09T00:53:29;16.50;78.30
4306;DHT22;2166;49.926;8.608;2022-09-09T00:56:02;16.50;78.40
4306;DHT22;2166;49.926;8.608;2022-09-09T00:58:32;16.40;78.40
4306;DHT22;2166;49.926;8.608;2022-09-09T01:01:02;16.40;78.50
4306;DHT22;2166;49.926;8.608;2022-09-09T01:03:34;16.40;78.60
4306;DHT22;2166;49.926;8.608;2022-09-09T01:06:11;16.40;78.60
4306;DHT22;2166;49.926;8.608;2022-09-09T01:08:46;16.50;78.60
4306;DHT22;2166;49.926;8.608;2022-09-09T01:11:20;16.50;78.50
4306;DHT22;2166;49.926;8.608;2022-09-09T01:13:49;16.60;78.40
4306;DHT22;2166;49.926;8.608;2022-09-09T01:16:21;16.60;78.20
4306;DHT22;2166;49.926;8.608;2022-09-09T01:18:49;16.60;78.20
4306;DHT22;2166;49.926;8.608;2022-09-09T01:21:21;16.60;78.40
4306;DHT22;2166;49.926;8.608;2022-09-09T01:24:03;16.50;78.40
4306;DHT22;2166;49.926;8.608;2022-09-09T01:26:46;16.50;78.40
4306;DHT22;2166;49.926;8.608;2022-09-09T01:29:24;16.40;78.60
4306;DHT22;2166;49.926;8.608;2022-09-09T01:31:53;16.40;78.60
4306;DHT22;2166;49.926;8.608;2022-09-09T01:34:22;16.40;78.70
4306;DHT22;2166;49.926;8.608;2022-09-09T01:36:52;16.30;78.80
4306;DHT22;2166;49.926;8.608;2022-09-09T01:39:21;16.40;78.70
4306;DHT22;2166;49.926;8.608;2022-09-09T01:41:59;16.40;78.70
4306;DHT22;2166;49.926;8.608;2022-09-09T01:44:27;16.40;78.70
4306;DHT22;2166;49.926;8.608;2022-09-09T01:46:55;16.40;78.70
4306;DHT22;2166;49.926;8.608;2022-09-09T01:49:23;16.40;78.70
4306;DHT22;2166;49.926;8.608;2022-09-09T01:51:51;16.40;78.70
4306;DHT22;2166;49.926;8.608;2022-09-09T01:54:27;16.30;78.70
4306;DHT22;2166;49.926;8.608;2022-09-09T01:57:00;16.30;78.80
4306;DHT22;2166;49.926;8.608;2022-09-09T01:59:41;16.30;78.80
4306;DHT22;2166;49.926;8.608;2022-09-09T02:02:15;16.40;78.80
4306;DHT22;2166;49.926;8.608;2022-09-09T02:04:56;16.40;78.80
4306;DHT22;2166;49.926;8.608;2022-09-09T02:07:28;16.40;78.80
4306;DHT22;2166;49.926;8.608;2022-09-09T02:10:00;16.40;78.80
4306;DHT22;2166;49.926;8.608;2022-09-09T02:12:32;16.40;78.80
4306;DHT22;2166;49.926;8.608;2022-09-09T02:15:03;16.50;78.80
4306;DHT22;2166;49.926;8.608;2022-09-09T02:17:40;16.50;78.70
4306;DHT22;2166;49.926;8.608;2022-09-09T02:20:14;16.50;78.70
4306;DHT22;2166;49.926;8.608;2022-09-09T02:22:51;16.60;78.70
4306;DHT22;2166;49.926;8.608;2022-09-09T02:25:22;16.60;78.70
4306;DHT22;2166;49.926;8.608;2022-09-09T02:27:56;16.70;78.60
4306;DHT22;2166;49.926;8.608;2022-09-09T02:30:25;16.80;78.40
4306;DHT22;2166;49.926;8.608;2022-09-09T02:32:58;16.90;78.30
4306;DHT22;2166;49.926;8.608;2022-09-09T02:35:42;16.90;78.20
4306;DHT22;2166;49.926;8.608;2022-09-09T02:38:13;17.00;78.00
4306;DHT22;2166;49.926;8.608;2022-09-09T02:40:53;17.00;78.00
4306;DHT22;2166;49.926;8.608;2022-09-09T02:43:23;17.10;77.90
4306;DHT22;2166;49.926;8.608;2022-09-09T02:45:52;17.10;77.90
4306;DHT22;2166;49.926;8.608;2022-09-09T02:48:26;17.10;77.90
4306;DHT22;2166;49.926;8.608;2022-09-09T02:50:57;17.20;77.60
4306;DHT22;2166;49.926;8.608;2022-09-09T02:53:32;17.20;77.40
4306;DHT22;2166;49.926;8.608;2022-09-09T02:56:05;17.30;77.30
4306;DHT22;2166;49.926;8.608;2022-09-09T02:58:41;17.30;77.10
4306;DHT22;2166;49.926;8.608;2022-09-09T03:01:09;17.30;77.10
4306;DHT22;2166;49.926;8.608;2022-09-09T03:03:38;17.30;77.10
4306;DHT22;2166;49.926;8.608;2022-09-09T03:06:12;17.30;77.10
4306;DHT22;2166;49.926;8.608;2022-09-09T03:08:42;17.30;77.00
4306;DHT22;2166;49.926;8.608;2022-09-09T03:11:18;17.30;77.10
4306;DHT22;2166;49.926;8.608;2022-09-09T03:13:48;17.20;77.40
4306;DHT22;2166;49.926;8.608;2022-09-09T03:16:16;17.20;77.50
4306;DHT22;2166;49.926;8.608;2022-09-09T03:18:48;17.20;77.60
4306;DHT22;2166;49.926;8.608;2022-09-09T03:21:16;17.10;77.50
4306;DHT22;2166;49.926;8.608;2022-09-09T03:23:44;17.10;77.70
4306;DHT22;2166;49.926;8.608;2022-09-09T03:26:13;17.00;77.80
4306;DHT22;2166;49.926;8.608;2022-09-09T03:28:44;16.90;78.10
4306;DHT22;2166;49.926;8.608;2022-09-09T03:31:17;16.90;78.20
4306;DHT22;2166;49.926;8.608;2022-09-09T03:33:46;16.90;78.20
4306;DHT22;2166;49.926;8.608;2022-09-09T03:36:15;16.90;78.30
4306;DHT22;2166;49.926;8.608;2022-09-09T03:38:43;16.90;78.40
4306;DHT22;2166;49.926;8.608;2022-09-09T03:41:12;16.80;78.40
4306;DHT22;2166;49.926;8.608;2022-09-09T03:43:40;16.90;78.50
4306;DHT22;2166;49.926;8.608;2022-09-09T03:46:08;16.90;78.50
4306;DHT22;2166;49.926;8.608;2022-09-09T03:48:38;16.90;78.50
4306;DHT22;2166;49.926;8.608;2022-09-09T03:51:06;16.90;78.50
4306;DHT22;2166;49.926;8.608;2022-09-09T03:53:34;16.80;78.50
4306;DHT22;2166;49.926;8.608;2022-09-09T03:56:03;16.70;78.70
4306;DHT22;2166;49.926;8.608;2022-09-09T03:58:33;16.60;78.90
4306;DHT22;2166;49.926;8.608;2022-09-09T04:01:06;16.50;79.10
4306;DHT22;2166;49.926;8.608;2022-09-09T04:03:38;16.40;79.30
4306;DHT22;2166;49.926;8.608;2022-09-09T04:06:08;16.30;79.50
4306;DHT22;2166;49.926;8.608;2022-09-09T04:08:36;16.20;79.70
4306;DHT22;2166;49.926;8.608;2022-09-09T04:11:05;16.20;79.70
4306;DHT22;2166;49.926;8.608;2022-09-09T04:13:35;16.10;79.80
4306;DHT22;2166;49.926;8.608;2022-09-09T04:16:04;16.00;80.10
4306;DHT22;2166;49.926;8.608;2022-09-09T04:18:34;16.00;80.30
4306;DHT22;2166;49.926;8.608;2022-09-09T04:21:04;16.00;80.30
4306;DHT22;2166;49.926;8.608;2022-09-09T04:23:34;16.00;80.30
4306;DHT22;2166;49.926;8.608;2022-09-09T04:26:03;16.00;80.30
4306;DHT22;2166;49.926;8.608;2022-09-09T04:28:33;16.00;80.30
4306;DHT22;2166;49.926;8.608;2022-09-09T04:31:04;16.10;80.20
4306;DHT22;2166;49.926;8.608;2022-09-09T04:33:33;16.20;80.00
4306;DHT22;2166;49.926;8.608;2022-09-09T04:36:08;16.20;79.90
4306;DHT22;2166;49.926;8.608;2022-09-09T04:38:36;16.30;79.80
4306;DHT22;2166;49.926;8.608;2022-09-09T04:41:04;16.30;79.60
4306;DHT22;2166;49.926;8.608;2022-09-09T04:43:33;16.40;79.50
4306;DHT22;2166;49.926;8.608;2022-09-09T04:46:04;16.40;79.50
4306;DHT22;2166;49.926;8.608;2022-09-09T04:48:32;16.40;79.50
4306;DHT22;2166;49.926;8.608;2022-09-09T04:51:02;16.30;79.50
4306;DHT22;2166;49.926;8.608;2022-09-09T04:53:33;16.30;79.70
4306;DHT22;2166;49.926;8.608;2022-09-09T04:56:02;16.20;79.80
4306;DHT22;2166;49.926;8.608;2022-09-09T04:58:34;16.10;80.00
4306;DHT22;2166;49.926;8.608;2022-09-09T05:01:05;16.00;80.20
4306;DHT22;2166;49.926;8.608;2022-09-09T05:03:34;16.00;80.40
4306;DHT22;2166;49.926;8.608;2022-09-09T05:06:04;15.90;80.50
4306;DHT22;2166;49.926;8.608;2022-09-09T05:08:34;15.90;80.60
4306;DHT22;2166;49.926;8.608;2022-09-09T05:11:02;15.90;80.70
4306;DHT22;2166;49.926;8.608;2022-09-09T05:13:30;15.90;80.70
4306;DHT22;2166;49.926;8.608;2022-09-09T05:15:59;15.90;80.60
4306;DHT22;2166;49.926;8.608;2022-09-09T05:18:27;16.00;80.50
4306;DHT22;2166;49.926;8.608;2022-09-09T05:20:59;16.00;80.30
4306;DHT22;2166;49.926;8.608;2022-09-09T05:23:29;16.20;79.90
4306;DHT22;2166;49.926;8.608;2022-09-09T05:26:00;16.40;79.70
4306;DHT22;2166;49.926;8.608;2022-09-09T05:28:29;16.50;79.20
4306;DHT22;2166;49.926;8.608;2022-09-09T05:30:57;16.50;79.00
4306;DHT22;2166;49.926;8.608;2022-09-09T05:33:29;16.40;79.20
4306;DHT22;2166;49.926;8.608;2022-09-09T05:35:58;16.30;79.40
4306;DHT22;2166;49.926;8.608;2022-09-09T05:38:26;16.30;79.60
4306;DHT22;2166;49.926;8.608;2022-09-09T05:40:55;16.30;79.70
4306;DHT22;2166;49.926;8.608;2022-09-09T05:43:25;16.20;79.60
4306;DHT22;2166;49.926;8.608;2022-09-09T05:45:58;16.20;79.70
4306;DHT22;2166;49.926;8.608;2022-09-09T05:48:28;16.20;79.80
4306;DHT22;2166;49.926;8.608;2022-09-09T05:50:56;16.20;79.80
4306;DHT22;2166;49.926;8.608;2022-09-09T05:53:24;16.10;79.90
4306;DHT22;2166;49.926;8.608;2022-09-09T05:55:58;16.10;79.90
4306;DHT22;2166;49.926;8.608;2022-09-09T05:58:27;16.10;80.00
4306;DHT22;2166;49.926;8.608;2022-09-09T06:01:02;16.10;80.20
4306;DHT22;2166;49.926;8.608;2022-09-09T06:03:31;16.10;80.10
4306;DHT22;2166;49.926;8.608;2022-09-09T06:06:00;16.30;79.90
4306;DHT22;2166;49.926;8.608;2022-09-09T06:08:28;16.80;79.00
4306;DHT22;2166;49.926;8.608;2022-09-09T06:11:00;17.40;77.80
4306;DHT22;2166;49.926;8.608;2022-09-09T06:13:30;17.80;76.90
4306;DHT22;2166;49.926;8.608;2022-09-09T06:15:59;18.20;76.00
4306;DHT22;2166;49.926;8.608;2022-09-09T06:18:27;18.50;75.00
4306;DHT22;2166;49.926;8.608;2022-09-09T06:20:56;18.80;74.50
4306;DHT22;2166;49.926;8.608;2022-09-09T06:23:25;18.90;74.00
4306;DHT22;2166;49.926;8.608;2022-09-09T06:26:00;18.70;74.40
4306;DHT22;2166;49.926;8.608;2022-09-09T06:28:28;18.80;74.50
4306;DHT22;2166;49.926;8.608;2022-09-09T06:31:01;19.30;73.40
4306;DHT22;2166;49.926;8.608;2022-09-09T06:33:30;19.30;73.00
4306;DHT22;2166;49.926;8.608;2022-09-09T06:35:59;19.50;72.90
4306;DHT22;2166;49.926;8.608;2022-09-09T06:38:27;19.30;72.90
4306;DHT22;2166;49.926;8.608;2022-09-09T06:40:57;19.10;73.50
4306;DHT22;2166;49.926;8.608;2022-09-09T06:43:25;19.10;73.50
4306;DHT22;2166;49.926;8.608;2022-09-09T06:45:55;19.00;73.50
4306;DHT22;2166;49.926;8.608;2022-09-09T06:48:24;18.80;73.90
4306;DHT22;2166;49.926;8.608;2022-09-09T06:51:01;18.60;74.40
4306;DHT22;2166;49.926;8.608;2022-09-09T06:53:29;18.60;74.70
4306;DHT22;2166;49.926;8.608;2022-09-09T06:55:57;18.60;74.50
4306;DHT22;2166;49.926;8.608;2022-09-09T06:58:26;18.60;74.60
4306;DHT22;2166;49.926;8.608;2022-09-09T07:01:01;18.70;74.50
4306;DHT22;2166;49.926;8.608;2022-09-09T07:03:30;18.50;74.80
4306;DHT22;2166;49.926;8.608;2022-09-09T07:06:00;18.30;75.30
4306;DHT22;2166;49.926;8.608;2022-09-09T07:08:28;18.10;75.60
4306;DHT22;2166;49.926;8.608;2022-09-09T07:11:01;18.00;76.00
4306;DHT22;2166;49.926;8.608;2022-09-09T07:13:36;18.00;76.20
4306;DHT22;2166;49.926;8.608;2022-09-09T07:16:06;17.90;76.20
4306;DHT22;2166;49.926;8.608;2022-09-09T07:18:36;17.90;76.20
4306;DHT22;2166;49.926;8.608;2022-09-09T07:21:04;17.90;76.30
4306;DHT22;2166;49.926;8.608;2022-09-09T07:23:33;17.90;76.40
4306;DHT22;2166;49.926;8.608;2022-09-09T07:26:06;17.90;76.40
4306;DHT22;2166;49.926;8.608;2022-09-09T07:28:35;17.90;76.40
4306;DHT22;2166;49.926;8.608;2022-09-09T07:31:04;17.90;76.10
4306;DHT22;2166;49.926;8.608;2022-09-09T07:33:35;17.90;76.20
4306;DHT22;2166;49.926;8.608;2022-09-09T07:36:04;18.00;76.40
4306;DHT22;2166;49.926;8.608;2022-09-09T07:38:37;18.10;76.10
4306;DHT22;2166;49.926;8.608;2022-09-09T07:41:06;18.20;76.00
4306;DHT22;2166;49.926;8.608;2022-09-09T07:43:35;18.20;76.00
4306;DHT22;2166;49.926;8.608;2022-09-09T07:46:04;18.40;75.60
4306;DHT22;2166;49.926;8.608;2022-09-09T07:48:32;18.40;75.50
4306;DHT22;2166;49.926;8.608;2022-09-09T07:51:06;18.50;75.40
4306;DHT22;2166;49.926;8.608;2022-09-09T07:53:35;18.50;75.20
4306;DHT22;2166;49.926;8.608;2022-09-09T07:56:06;18.70;75.00
4306;DHT22;2166;49.926;8.608;2022-09-09T07:58:36;18.80;74.70
4306;DHT22;2166;49.926;8.608;2022-09-09T08:01:08;18.90;74.40
4306;DHT22;2166;49.926;8.608;2022-09-09T08:03:36;19.20;74.00
4306;DHT22;2166;49.926;8.608;2022-09-09T08:06:06;19.50;73.80
4306;DHT22;2166;49.926;8.608;2022-09-09T08:08:36;19.90;72.70
4306;DHT22;2166;49.926;8.608;2022-09-09T08:11:06;20.20;72.10
4306;DHT22;2166;49.926;8.608;2022-09-09T08:13:35;20.50;71.50
4306;DHT22;2166;49.926;8.608;2022-09-09T08:16:05;20.60;71.30
4306;DHT22;2166;49.926;8.608;2022-09-09T08:18:33;20.50;71.20
4306;DHT22;2166;49.926;8.608;2022-09-09T08:21:05;20.50;71.10
4306;DHT22;2166;49.926;8.608;2022-09-09T08:23:33;20.60;71.20
4306;DHT22;2166;49.926;8.608;2022-09-09T08:26:07;20.80;70.50
4306;DHT22;2166;49.926;8.608;2022-09-09T08:28:37;20.70;70.50
4306;DHT22;2166;49.926;8.608;2022-09-09T08:31:10;20.80;70.40
4306;DHT22;2166;49.926;8.608;2022-09-09T08:33:39;20.80;70.50
4306;DHT22;2166;49.926;8.608;2022-09-09T08:36:09;20.60;70.70
4306;DHT22;2166;49.926;8.608;2022-09-09T08:38:37;20.40;70.50
4306;DHT22;2166;49.926;8.608;2022-09-09T08:44:03;20.50;70.80
4306;DHT22;2166;49.926;8.608;2022-09-09T08:46:35;20.60;70.60
4306;DHT22;2166;49.926;8.608;2022-09-09T08:49:06;20.70;70.50
4306;DHT22;2166;49.926;8.608;2022-09-09T08:51:41;20.60;70.50
4306;DHT22;2166;49.926;8.608;2022-09-09T08:54:10;20.30;70.40
4306;DHT22;2166;49.926;8.608;2022-09-09T08:56:38;20.20;70.90
4306;DHT22;2166;49.926;8.608;2022-09-09T08:59:08;20.20;71.20
4306;DHT22;2166;49.926;8.608;2022-09-09T09:01:48;20.40;71.10
4306;DHT22;2166;49.926;8.608;2022-09-09T09:04:29;20.70;70.20
4306;DHT22;2166;49.926;8.608;2022-09-09T09:07:01;21.40;69.50
4306;DHT22;2166;49.926;8.608;2022-09-09T09:09:35;21.40;69.30
4306;DHT22;2166;49.926;8.608;2022-09-09T09:12:10;21.20;69.30
4306;DHT22;2166;49.926;8.608;2022-09-09T09:14:44;21.10;69.50
4306;DHT22;2166;49.926;8.608;2022-09-09T09:17:15;21.10;69.60
4306;DHT22;2166;49.926;8.608;2022-09-09T09:19:46;21.20;69.40
4306;DHT22;2166;49.926;8.608;2022-09-09T09:22:17;21.20;69.60
4306;DHT22;2166;49.926;8.608;2022-09-09T09:24:50;20.90;70.00
4306;DHT22;2166;49.926;8.608;2022-09-09T09:27:22;20.50;70.30
4306;DHT22;2166;49.926;8.608;2022-09-09T09:29:57;20.20;71.40
4306;DHT22;2166;49.926;8.608;2022-09-09T09:32:50;19.70;73.60
4306;DHT22;2166;49.926;8.608;2022-09-09T09:35:19;19.80;75.20
4306;DHT22;2166;49.926;8.608;2022-09-09T09:37:47;20.90;72.40
4306;DHT22;2166;49.926;8.608;2022-09-09T09:40:36;21.80;71.10
4306;DHT22;2166;49.926;8.608;2022-09-09T09:43:04;22.60;68.60
4306;DHT22;2166;49.926;8.608;2022-09-09T09:45:42;22.80;68.50
4306;DHT22;2166;49.926;8.608;2022-09-09T09:48:31;22.60;68.40
4306;DHT22;2166;49.926;8.608;2022-09-09T09:51:08;22.30;68.80
4306;DHT22;2166;49.926;8.608;2022-09-09T09:53:38;22.00;70.80
4306;DHT22;2166;49.926;8.608;2022-09-09T09:56:09;21.10;70.60
4306;DHT22;2166;49.926;8.608;2022-09-09T09:58:49;20.40;73.70
4306;DHT22;2166;49.926;8.608;2022-09-09T10:01:23;20.20;76.00
4306;DHT22;2166;49.926;8.608;2022-09-09T10:03:52;20.40;74.80
4306;DHT22;2166;49.926;8.608;2022-09-09T10:06:29;20.10;74.10
4306;DHT22;2166;49.926;8.608;2022-09-09T10:08:57;20.20;74.40
4306;DHT22;2166;49.926;8.608;2022-09-09T10:11:28;20.10;74.80
4306;DHT22;2166;49.926;8.608;2022-09-09T10:14:00;20.00;71.90
4306;DHT22;2166;49.926;8.608;2022-09-09T10:16:41;19.80;72.00
4306;DHT22;2166;49.926;8.608;2022-09-09T10:19:13;20.00;72.60
4306;DHT22;2166;49.926;8.608;2022-09-09T10:21:56;21.40;70.70
4306;DHT22;2166;49.926;8.608;2022-09-09T10:24:33;22.70;68.10
4306;DHT22;2166;49.926;8.608;2022-09-09T10:27:05;23.80;66.70
4306;DHT22;2166;49.926;8.608;2022-09-09T10:29:40;24.70;65.20
4306;DHT22;2166;49.926;8.608;2022-09-09T10:32:29;25.30;64.30
4306;DHT22;2166;49.926;8.608;2022-09-09T10:35:02;25.70;62.50
4306;DHT22;2166;49.926;8.608;2022-09-09T10:37:38;25.60;61.30
4306;DHT22;2166;49.926;8.608;2022-09-09T10:40:18;25.10;62.60
4306;DHT22;2166;49.926;8.608;2022-09-09T10:42:47;25.70;61.80
4306;DHT22;2166;49.926;8.608;2022-09-09T10:45:17;26.30;59.60
4306;DHT22;2166;49.926;8.608;2022-09-09T10:48:05;26.80;58.10
4306;DHT22;2166;49.926;8.608;2022-09-09T10:50:45;27.20;57.30
4306;DHT22;2166;49.926;8.608;2022-09-09T10:53:41;27.60;57.50
4306;DHT22;2166;49.926;8.608;2022-09-09T10:56:13;27.50;57.00
4306;DHT22;2166;49.926;8.608;2022-09-09T10:58:44;27.20;56.20
4306;DHT22;2166;49.926;8.608;2022-09-09T11:01:15;27.40;57.30
4306;DHT22;2166;49.926;8.608;2022-09-09T11:03:47;27.80;55.20
4306;DHT22;2166;49.926;8.608;2022-09-09T11:06:17;27.90;52.40
4306;DHT22;2166;49.926;8.608;2022-09-09T11:08:46;26.50;57.10
4306;DHT22;2166;49.926;8.608;2022-09-09T11:11:21;25.40;58.40
4306;DHT22;2166;49.926;8.608;2022-09-09T11:13:53;24.70;61.20
4306;DHT22;2166;49.926;8.608;2022-09-09T11:16:25;24.80;59.30
4306;DHT22;2166;49.926;8.608;2022-09-09T11:18:58;24.50;58.20
4306;DHT22;2166;49.926;8.608;2022-09-09T11:21:27;24.40;59.00
4306;DHT22;2166;49.926;8.608;2022-09-09T11:23:58;25.30;58.70
4306;DHT22;2166;49.926;8.608;2022-09-09T11:26:29;27.10;56.10
4306;DHT22;2166;49.926;8.608;2022-09-09T11:29:02;27.50;54.90
4306;DHT22;2166;49.926;8.608;2022-09-09T11:31:43;26.50;56.10
4306;DHT22;2166;49.926;8.608;2022-09-09T11:34:19;25.30;57.30
4306;DHT22;2166;49.926;8.608;2022-09-09T11:36:51;24.60;60.10
4306;DHT22;2166;49.926;8.608;2022-09-09T11:42:06;24.70;59.60
4306;DHT22;2166;49.926;8.608;2022-09-09T11:44:35;24.50;60.40
4306;DHT22;2166;49.926;8.608;2022-09-09T11:47:22;24.40;61.70
4306;DHT22;2166;49.926;8.608;2022-09-09T11:49:54;24.00;62.50
4306;DHT22;2166;49.926;8.608;2022-09-09T11:52:23;23.70;64.40
4306;DHT22;2166;49.926;8.608;2022-09-09T11:54:54;23.90;63.50
4306;DHT22;2166;49.926;8.608;2022-09-09T11:57:26;24.40;63.20
4306;DHT22;2166;49.926;8.608;2022-09-09T11:59:58;23.90;63.00
4306;DHT22;2166;49.926;8.608;2022-09-09T12:02:27;23.80;64.00
4306;DHT22;2166;49.926;8.608;2022-09-09T12:05:00;24.70;62.40
4306;DHT22;2166;49.926;8.608;2022-09-09T12:07:33;25.20;60.60
4306;DHT22;2166;49.926;8.608;2022-09-09T12:10:03;24.80;61.60
4306;DHT22;2166;49.926;8.608;2022-09-09T12:12:32;24.30;63.00
4306;DHT22;2166;49.926;8.608;2022-09-09T12:15:02;23.80;63.90
4306;DHT22;2166;49.926;8.608;2022-09-09T12:17:31;23.80;63.80
4306;DHT22;2166;49.926;8.608;2022-09-09T12:20:02;23.90;63.80
4306;DHT22;2166;49.926;8.608;2022-09-09T12:22:35;23.90;63.50
4306;DHT22;2166;49.926;8.608;2022-09-09T12:25:08;24.00;64.00
4306;DHT22;2166;49.926;8.608;2022-09-09T12:27:40;24.00;63.90
4306;DHT22;2166;49.926;8.608;2022-09-09T12:30:14;23.80;64.50
4306;DHT22;2166;49.926;8.608;2022-09-09T12:32:42;23.90;64.40
4306;DHT22;2166;49.926;8.608;2022-09-09T12:35:13;23.90;64.00
4306;DHT22;2166;49.926;8.608;2022-09-09T12:37:46;23.60;65.50
4306;DHT22;2166;49.926;8.608;2022-09-09T12:40:19;22.90;67.70
4306;DHT22;2166;49.926;8.608;2022-09-09T12:42:47;21.90;69.10
4306;DHT22;2166;49.926;8.608;2022-09-09T12:45:16;21.30;70.20
4306;DHT22;2166;49.926;8.608;2022-09-09T12:47:45;20.80;70.70
4306;DHT22;2166;49.926;8.608;2022-09-09T12:50:19;20.30;69.50
4306;DHT22;2166;49.926;8.608;2022-09-09T12:52:48;20.30;68.60
4306;DHT22;2166;49.926;8.608;2022-09-09T12:55:18;20.60;67.40
4306;DHT22;2166;49.926;8.608;2022-09-09T12:57:48;21.00;66.90
4306;DHT22;2166;49.926;8.608;2022-09-09T13:00:19;21.10;65.10
4306;DHT22;2166;49.926;8.608;2022-09-09T13:02:50;21.10;64.50
4306;DHT22;2166;49.926;8.608;2022-09-09T13:05:21;21.10;64.40
4306;DHT22;2166;49.926;8.608;2022-09-09T13:07:50;20.90;66.30
4306;DHT22;2166;49.926;8.608;2022-09-09T13:10:23;20.60;64.70
4306;DHT22;2166;49.926;8.608;2022-09-09T13:13:13;20.40;66.40
4306;DHT22;2166;49.926;8.608;2022-09-09T13:15:47;20.10;68.50
4306;DHT22;2166;49.926;8.608;2022-09-09T13:18:16;20.00;68.20
4306;DHT22;2166;49.926;8.608;2022-09-09T13:20:47;20.00;67.20
4306;DHT22;2166;49.926;8.608;2022-09-09T13:23:15;20.00;66.60
4306;DHT22;2166;49.926;8.608;2022-09-09T13:25:55;20.10;65.30
4306;DHT22;2166;49.926;8.608;2022-09-09T13:28:24;20.30;65.30
4306;DHT22;2166;49.926;8.608;2022-09-09T13:30:59;20.40;65.40
4306;DHT22;2166;49.926;8.608;2022-09-09T13:33:30;20.40;65.10
4306;DHT22;2166;49.926;8.608;2022-09-09T13:36:00;20.40;65.90
4306;DHT22;2166;49.926;8.608;2022-09-09T13:38:31;20.50;66.10
4306;DHT22;2166;49.926;8.608;2022-09-09T13:41:02;20.60;65.80
4306;DHT22;2166;49.926;8.608;2022-09-09T13:43:31;20.80;65.90
4306;DHT22;2166;49.926;8.608;2022-09-09T13:46:02;21.30;64.70
4306;DHT22;2166;49.926;8.608;2022-09-09T13:48:30;22.20;63.40
4306;DHT22;2166;49.926;8.608;2022-09-09T13:51:01;23.60;60.50
4306;DHT22;2166;49.926;8.608;2022-09-09T13:53:29;24.50;58.00
4306;DHT22;2166;49.926;8.608;2022-09-09T13:55:57;25.10;57.40
4306;DHT22;2166;49.926;8.608;2022-09-09T13:58:26;25.20;56.40
4306;DHT22;2166;49.926;8.608;2022-09-09T14:00:55;24.70;57.70
4306;DHT22;2166;49.926;8.608;2022-09-09T14:03:24;24.50;59.60
4306;DHT22;2166;49.926;8.608;2022-09-09T14:05:51;24.30;59.40
4306;DHT22;2166;49.926;8.608;2022-09-09T14:08:23;23.60;59.20
4306;DHT22;2166;49.926;8.608;2022-09-09T14:10:51;22.80;59.90
4306;DHT22;2166;49.926;8.608;2022-09-09T14:13:19;22.00;62.10
4306;DHT22;2166;49.926;8.608;2022-09-09T14:15:48;21.70;63.70
4306;DHT22;2166;49.926;8.608;2022-09-09T14:18:17;21.40;64.50
4306;DHT22;2166;49.926;8.608;2022-09-09T14:20:45;21.20;64.70
4306;DHT22;2166;49.926;8.608;2022-09-09T14:23:13;21.00;64.70
4306;DHT22;2166;49.926;8.608;2022-09-09T14:25:43;21.00;65.80
4306;DHT22;2166;49.926;8.608;2022-09-09T14:28:12;21.00;66.40
4306;DHT22;2166;49.926;8.608;2022-09-09T14:30:40;20.90;67.10
4306;DHT22;2166;49.926;8.608;2022-09-09T14:33:09;20.80;67.30
4306;DHT22;2166;49.926;8.608;2022-09-09T14:35:38;20.90;68.30
4306;DHT22;2166;49.926;8.608;2022-09-09T14:38:07;20.90;68.70
4306;DHT22;2166;49.926;8.608;2022-09-09T14:40:35;21.00;68.80
4306;DHT22;2166;49.926;8.608;2022-09-09T14:43:05;21.20;68.80
4306;DHT22;2166;49.926;8.608;2022-09-09T14:45:35;21.00;69.10
4306;DHT22;2166;49.926;8.608;2022-09-09T14:48:04;20.80;69.30
4306;DHT22;2166;49.926;8.608;2022-09-09T14:50:32;20.60;69.60
4306;DHT22;2166;49.926;8.608;2022-09-09T14:53:01;20.50;69.90
4306;DHT22;2166;49.926;8.608;2022-09-09T14:55:29;20.50;70.00
4306;DHT22;2166;49.926;8.608;2022-09-09T14:57:58;20.50;69.80
4306;DHT22;2166;49.926;8.608;2022-09-09T15:00:27;20.60;69.80
4306;DHT22;2166;49.926;8.608;2022-09-09T15:02:55;20.60;69.30
4306;DHT22;2166;49.926;8.608;2022-09-09T15:05:23;20.60;69.50
4306;DHT22;2166;49.926;8.608;2022-09-09T15:07:51;20.60;69.40
4306;DHT22;2166;49.926;8.608;2022-09-09T15:10:19;20.60;69.20
4306;DHT22;2166;49.926;8.608;2022-09-09T15:12:47;20.60;69.10
4306;DHT22;2166;49.926;8.608;2022-09-09T15:15:15;20.50;69.00
4306;DHT22;2166;49.926;8.608;2022-09-09T15:17:45;20.40;69.50
4306;DHT22;2166;49.926;8.608;2022-09-09T15:20:14;20.40;69.90
4306;DHT22;2166;49.926;8.608;2022-09-09T15:22:43;20.40;69.60
4306;DHT22;2166;49.926;8.608;2022-09-09T15:25:11;20.50;69.20
4306;DHT22;2166;49.926;8.608;2022-09-09T15:27:39;20.80;68.70
4306;DHT22;2166;49.926;8.608;2022-09-09T15:30:08;21.20;67.70
4306;DHT22;2166;49.926;8.608;2022-09-09T15:32:36;21.40;67.50
4306;DHT22;2166;49.926;8.608;2022-09-09T15:35:06;21.40;67.80
4306;DHT22;2166;49.926;8.608;2022-09-09T15:37:35;21.40;68.10
4306;DHT22;2166;49.926;8.608;2022-09-09T15:40:03;21.60;67.80
4306;DHT22;2166;49.926;8.608;2022-09-09T15:42:31;21.80;67.40
4306;DHT22;2166;49.926;8.608;2022-09-09T15:44:59;21.80;67.70
4306;DHT22;2166;49.926;8.608;2022-09-09T15:47:27;21.70;68.10
4306;DHT22;2166;49.926;8.608;2022-09-09T15:49:55;21.70;68.10
4306;DHT22;2166;49.926;8.608;2022-09-09T15:52:25;21.70;68.50
4306;DHT22;2166;49.926;8.608;2022-09-09T15:54:53;21.50;68.90
4306;DHT22;2166;49.926;8.608;2022-09-09T15:57:21;21.20;69.50
4306;DHT22;2166;49.926;8.608;2022-09-09T15:59:49;21.00;70.00
4306;DHT22;2166;49.926;8.608;2022-09-09T16:02:17;20.90;70.30
4306;DHT22;2166;49.926;8.608;2022-09-09T16:04:45;20.70;70.60
4306;DHT22;2166;49.926;8.608;2022-09-09T16:07:13;20.50;71.00
4306;DHT22;2166;49.926;8.608;2022-09-09T16:09:42;20.50;70.80
4306;DHT22;2166;49.926;8.608;2022-09-09T16:12:10;20.40;70.80
4306;DHT22;2166;49.926;8.608;2022-09-09T16:14:39;20.30;71.00
4306;DHT22;2166;49.926;8.608;2022-09-09T16:17:07;20.10;71.50
4306;DHT22;2166;49.926;8.608;2022-09-09T16:19:35;20.00;71.80
4306;DHT22;2166;49.926;8.608;2022-09-09T16:22:03;20.00;72.00
4306;DHT22;2166;49.926;8.608;2022-09-09T16:24:33;20.00;72.10
4306;DHT22;2166;49.926;8.608;2022-09-09T16:27:02;20.10;72.20
4306;DHT22;2166;49.926;8.608;2022-09-09T16:29:30;20.10;72.20
4306;DHT22;2166;49.926;8.608;2022-09-09T16:31:58;19.90;71.60